createdAt,value
2022-07-28T00:00:38.009Z,7.68
2022-07-28T00:03:41.110Z,10.68
2022-07-28T00:06:43.681Z,10.90
2022-07-28T00:09:46.613Z,7.70
2022-07-28T00:12:49.352Z,10.37
2022-07-28T00:15:52.211Z,9.68
2022-07-28T00:18:55.126Z,11.43
2022-07-28T00:21:57.956Z,10.48
2022-07-28T00:25:00.510Z,8.82
2022-07-28T00:28:03.367Z,9.77
2022-07-28T00:31:10.634Z,8.88
2022-07-28T00:34:16.953Z,11.82
2022-07-28T00:37:19.781Z,8.70
2022-07-28T00:40:22.691Z,9.48
2022-07-28T00:43:25.244Z,5.53
2022-07-28T00:46:28.183Z,10.23
2022-07-28T00:49:30.808Z,9.27
2022-07-28T00:52:34.115Z,12.23
2022-07-28T00:56:05.726Z,12.70
2022-07-28T00:59:01.883Z,10.53
2022-07-28T01:02:05.347Z,11.45
2022-07-28T01:05:08.754Z,8.90
2022-07-28T01:08:20.932Z,10.82
2022-07-28T01:11:45.106Z,11.60
2022-07-28T01:15:03.778Z,10.33
2022-07-28T01:18:11.715Z,11.00
2022-07-28T01:21:16.991Z,12.73
2022-07-28T01:24:28.073Z,10.10
2022-07-28T01:27:53.763Z,12.55
2022-07-28T01:30:58.237Z,11.73
2022-07-28T01:34:06.377Z,10.50
2022-07-28T01:37:12.095Z,12.60
2022-07-28T01:40:17.874Z,10.02
2022-07-28T01:43:24.335Z,12.98
2022-07-28T01:46:27.582Z,10.70
2022-07-28T01:49:31.041Z,8.75
2022-07-28T01:52:34.812Z,9.95
2022-07-28T01:55:38.601Z,11.27
2022-07-28T01:58:42.401Z,11.12
2022-07-28T02:01:47.051Z,10.43
2022-07-28T02:04:51.455Z,11.70
2022-07-28T02:07:54.861Z,14.18
2022-07-28T02:11:17.536Z,11.12
2022-07-28T02:14:24.276Z,12.18
2022-07-28T02:17:30.648Z,12.23
2022-07-28T02:20:34.511Z,12.82
2022-07-28T02:23:38.179Z,9.82
2022-07-28T02:26:46.068Z,12.82
2022-07-28T02:29:53.804Z,10.90
2022-07-28T02:32:59.550Z,12.60
2022-07-28T02:36:10.060Z,9.98
2022-07-28T02:39:18.201Z,12.00
2022-07-28T02:42:26.775Z,13.40
2022-07-28T02:45:30.237Z,12.00
2022-07-28T02:48:37.036Z,13.37
2022-07-28T02:51:41.217Z,12.20
2022-07-28T02:54:44.638Z,11.93
2022-07-28T02:57:49.327Z,13.68
2022-07-28T03:00:55.541Z,13.65
2022-07-28T03:03:58.080Z,11.20
2022-07-28T03:07:01.000Z,12.82
2022-07-28T03:10:04.956Z,11.77
2022-07-28T03:13:08.444Z,10.95
2022-07-28T03:16:11.297Z,8.15
2022-07-28T03:19:14.124Z,8.97
2022-07-28T03:22:16.726Z,10.35
2022-07-28T03:25:26.232Z,10.60
2022-07-28T03:28:29.180Z,10.05
2022-07-28T03:31:32.399Z,10.32
2022-07-28T03:34:35.097Z,9.27
2022-07-28T03:37:55.646Z,10.20
2022-07-28T03:40:58.857Z,7.57
2022-07-28T03:44:02.985Z,10.68
2022-07-28T03:47:06.379Z,10.15
2022-07-28T03:50:09.329Z,10.93
2022-07-28T03:53:25.571Z,11.10
2022-07-28T03:56:28.425Z,9.55
2022-07-28T03:59:30.948Z,9.35
2022-07-28T04:02:34.711Z,13.13
2022-07-28T04:05:37.582Z,10.57
2022-07-28T04:08:40.087Z,12.02
2022-07-28T04:11:43.710Z,10.43
2022-07-28T04:14:46.211Z,12.57
2022-07-28T04:17:49.893Z,10.93
2022-07-28T04:20:52.487Z,10.77
2022-07-28T04:23:59.793Z,13.60
2022-07-28T04:27:04.420Z,10.10
2022-07-28T04:30:09.355Z,9.82
2022-07-28T04:33:12.384Z,7.65
2022-07-28T04:36:15.224Z,7.97
2022-07-28T04:39:17.767Z,10.45
2022-07-28T04:42:20.597Z,6.93
2022-07-28T04:45:23.228Z,8.75
2022-07-28T04:48:26.024Z,8.90
2022-07-28T04:51:28.573Z,8.10
2022-07-28T04:54:31.410Z,6.87
2022-07-28T04:57:34.256Z,10.40
2022-07-28T05:00:37.139Z,9.38
2022-07-28T05:03:39.621Z,12.68
2022-07-28T05:06:42.431Z,6.50
2022-07-28T05:09:45.098Z,6.97
2022-07-28T05:12:49.388Z,8.23
2022-07-28T05:15:51.931Z,9.10
2022-07-28T05:18:54.740Z,8.45
2022-07-28T05:21:57.308Z,7.50
2022-07-28T05:25:00.056Z,10.63
2022-07-28T05:28:02.733Z,9.55
2022-07-28T05:31:05.550Z,11.88
2022-07-28T05:34:08.108Z,9.68
2022-07-28T05:37:11.017Z,8.27
2022-07-28T05:40:15.413Z,10.25
2022-07-28T05:43:18.483Z,10.75
2022-07-28T05:46:21.149Z,11.77
2022-07-28T05:49:24.147Z,10.00
2022-07-28T05:52:27.929Z,8.87
2022-07-28T05:55:30.986Z,8.52
2022-07-28T05:58:33.652Z,11.52
2022-07-28T06:01:38.017Z,6.00
2022-07-28T06:04:40.832Z,8.30
2022-07-28T06:07:47.435Z,10.87
2022-07-28T06:10:59.227Z,9.73
2022-07-28T06:14:01.926Z,7.93
2022-07-28T06:17:05.148Z,7.32
2022-07-28T06:20:09.294Z,5.30
2022-07-28T06:23:12.324Z,8.87
2022-07-28T06:26:14.895Z,9.38
2022-07-28T06:29:18.821Z,10.68
2022-07-28T06:32:21.368Z,8.75
2022-07-28T06:35:24.619Z,9.00
2022-07-28T06:38:27.468Z,7.10
2022-07-28T06:41:30.292Z,9.02
2022-07-28T06:44:55.009Z,8.50
2022-07-28T06:47:55.713Z,7.35
2022-07-28T06:50:59.770Z,11.38
2022-07-28T06:54:04.848Z,7.43
2022-07-28T06:57:14.054Z,8.68
2022-07-28T07:00:19.916Z,6.43
2022-07-28T07:03:22.531Z,7.10
2022-07-28T07:06:25.332Z,7.72
2022-07-28T07:09:27.867Z,6.70
2022-07-28T07:12:32.995Z,5.30
2022-07-28T07:15:35.533Z,9.48
2022-07-28T07:18:38.434Z,7.45
2022-07-28T07:21:40.983Z,6.90
2022-07-28T07:24:43.829Z,8.03
2022-07-28T07:27:46.689Z,6.43
2022-07-28T07:30:49.640Z,7.57
2022-07-28T07:33:52.372Z,9.45
2022-07-28T07:36:55.253Z,7.97
2022-07-28T07:40:01.631Z,8.93
2022-07-28T07:43:05.407Z,7.40
2022-07-28T07:46:08.031Z,7.90
2022-07-28T07:49:10.994Z,7.55
2022-07-28T07:52:14.562Z,9.45
2022-07-28T07:55:17.600Z,7.43
2022-07-28T07:58:20.225Z,7.40
2022-07-28T08:01:23.117Z,14.77
2022-07-28T08:04:26.026Z,7.60
2022-07-28T08:07:31.248Z,8.50
2022-07-28T08:10:35.389Z,9.57
2022-07-28T08:13:38.045Z,8.30
2022-07-28T08:16:40.967Z,7.03
2022-07-28T08:19:43.544Z,8.48
2022-07-28T08:22:50.771Z,6.00
2022-07-28T08:25:53.924Z,9.97
2022-07-28T08:28:56.868Z,7.53
2022-07-28T08:32:02.957Z,6.25
2022-07-28T08:35:31.732Z,7.22
2022-07-28T08:38:28.858Z,7.57
2022-07-28T08:41:54.184Z,7.27
2022-07-28T08:45:03.987Z,7.47
2022-07-28T08:48:09.356Z,6.95
2022-07-28T08:51:12.535Z,7.97
2022-07-28T08:54:21.759Z,7.53
2022-07-28T08:57:43.380Z,6.93
2022-07-28T09:00:46.645Z,8.73
2022-07-28T09:03:51.103Z,8.05
2022-07-28T09:06:54.589Z,8.52
2022-07-28T09:09:57.183Z,7.57
2022-07-28T09:13:05.569Z,8.77
2022-07-28T09:16:08.261Z,8.80
2022-07-28T09:19:11.202Z,6.95
2022-07-28T09:22:13.837Z,6.55
2022-07-28T09:25:19.752Z,6.95
2022-07-28T09:28:22.260Z,7.43
2022-07-28T09:31:27.251Z,7.75
2022-07-28T09:34:42.564Z,7.95
2022-07-28T09:37:45.902Z,6.75
2022-07-28T09:40:58.528Z,11.63
2022-07-28T09:44:01.388Z,6.80
2022-07-28T09:47:25.313Z,7.00
2022-07-28T09:50:30.327Z,6.75
2022-07-28T09:53:32.888Z,8.75
2022-07-28T09:56:36.636Z,7.70
2022-07-28T09:59:46.126Z,6.03
2022-07-28T10:02:54.964Z,6.95
2022-07-28T10:05:59.210Z,6.75
2022-07-28T10:09:05.473Z,6.47
2022-07-28T10:12:16.084Z,6.47
2022-07-28T10:15:38.501Z,6.60
2022-07-28T10:18:49.797Z,6.37
2022-07-28T10:21:54.936Z,7.15
2022-07-28T10:24:58.604Z,5.28
2022-07-28T10:28:02.414Z,4.93
2022-07-28T10:31:09.690Z,5.27
2022-07-28T10:34:21.480Z,4.00
2022-07-28T10:37:28.638Z,5.78
2022-07-28T10:40:40.818Z,5.75
2022-07-28T10:43:45.408Z,4.57
2022-07-28T10:46:49.291Z,5.00
2022-07-28T10:49:52.288Z,5.50
2022-07-28T10:52:59.227Z,4.70
2022-07-28T10:56:16.276Z,5.50
2022-07-28T11:00:05.272Z,4.22
2022-07-28T11:03:38.436Z,6.20
2022-07-28T11:06:42.474Z,5.65
2022-07-28T11:09:47.586Z,4.55
2022-07-28T11:12:52.468Z,4.53
2022-07-28T11:15:56.252Z,4.90
2022-07-28T11:19:36.440Z,4.80
2022-07-28T11:22:34.219Z,3.90
2022-07-28T11:25:37.288Z,5.43
2022-07-28T11:29:12.695Z,5.62
2022-07-28T11:32:15.204Z,3.90
2022-07-28T11:35:19.379Z,4.67
2022-07-28T11:38:23.203Z,4.43
2022-07-28T11:41:32.284Z,6.12
2022-07-28T11:44:36.956Z,4.97
2022-07-28T11:47:39.774Z,4.07
2022-07-28T11:50:43.605Z,4.50
2022-07-28T11:53:53.243Z,3.92
2022-07-28T11:56:59.170Z,3.67
2022-07-28T12:00:06.151Z,4.07
2022-07-28T12:03:10.971Z,3.65
2022-07-28T12:06:15.007Z,4.73
2022-07-28T12:09:21.946Z,3.58
2022-07-28T12:12:31.415Z,5.35
2022-07-28T12:15:37.582Z,5.43
2022-07-28T12:18:43.080Z,3.78
2022-07-28T12:21:53.971Z,4.97
2022-07-28T12:24:58.142Z,4.53
2022-07-28T12:28:16.544Z,7.80
2022-07-28T12:31:25.927Z,5.10
2022-07-28T12:34:30.416Z,5.03
2022-07-28T12:37:33.076Z,5.57
2022-07-28T12:40:36.798Z,5.32
2022-07-28T12:43:39.436Z,4.50
2022-07-28T12:46:48.843Z,5.32
2022-07-28T12:50:11.003Z,5.15
2022-07-28T12:53:15.227Z,4.73
2022-07-28T12:56:17.791Z,5.30
2022-07-28T12:59:20.744Z,4.82
2022-07-28T13:02:35.639Z,6.60
2022-07-28T13:05:57.543Z,4.30
2022-07-28T13:09:00.177Z,4.50
2022-07-28T13:12:03.598Z,6.55
2022-07-28T13:15:16.041Z,5.47
2022-07-28T13:18:18.949Z,7.05
2022-07-28T13:21:58.988Z,4.57
2022-07-28T13:25:03.611Z,4.87
2022-07-28T13:28:07.104Z,5.65
2022-07-28T13:31:10.267Z,5.65
2022-07-28T13:34:13.231Z,5.40
2022-07-28T13:37:16.394Z,6.15
2022-07-28T13:40:18.954Z,5.43
2022-07-28T13:43:21.811Z,4.25
2022-07-28T13:46:25.583Z,5.43
2022-07-28T13:49:32.031Z,4.80
2022-07-28T13:52:34.926Z,4.55
2022-07-28T13:55:40.084Z,4.13
2022-07-28T13:58:42.608Z,4.22
2022-07-28T14:01:49.873Z,5.75
2022-07-28T14:04:53.224Z,4.87
2022-07-28T14:07:57.640Z,4.28
2022-07-28T14:11:03.684Z,4.43
2022-07-28T14:14:06.293Z,4.22
2022-07-28T14:17:25.995Z,5.10
2022-07-28T14:20:31.901Z,5.20
2022-07-28T14:23:35.445Z,3.62
2022-07-28T14:26:37.953Z,5.90
2022-07-28T14:29:40.979Z,5.75
2022-07-28T14:32:43.708Z,4.85
2022-07-28T14:35:47.005Z,4.85
2022-07-28T14:38:53.381Z,4.10
2022-07-28T14:41:56.654Z,8.10
2022-07-28T14:44:59.631Z,4.40
2022-07-28T14:48:02.616Z,4.37
2022-07-28T14:51:06.107Z,7.75
2022-07-28T14:54:09.267Z,3.28
2022-07-28T14:57:11.808Z,4.23
2022-07-28T15:00:16.506Z,4.68
2022-07-28T15:03:19.343Z,3.42
2022-07-28T15:06:22.347Z,3.20
2022-07-28T15:09:24.904Z,3.15
2022-07-28T15:12:28.183Z,3.97
2022-07-28T15:15:30.693Z,3.95
2022-07-28T15:18:33.611Z,3.72
2022-07-28T15:21:38.380Z,4.22
2022-07-28T15:24:42.250Z,3.92
2022-07-28T15:27:48.275Z,3.27
2022-07-28T15:30:52.701Z,3.45
2022-07-28T15:33:57.717Z,4.03
2022-07-28T15:37:01.121Z,4.95
2022-07-28T15:40:04.367Z,3.28
2022-07-28T15:43:07.255Z,3.67
2022-07-28T15:46:11.979Z,4.30
2022-07-28T15:49:15.057Z,4.60
2022-07-28T15:52:17.703Z,4.12
2022-07-28T15:55:20.931Z,6.68
2022-07-28T15:58:26.369Z,3.97
2022-07-28T16:01:30.386Z,6.07
2022-07-28T16:04:33.837Z,4.50
2022-07-28T16:07:45.200Z,4.20
2022-07-28T16:10:48.166Z,3.50
2022-07-28T16:13:50.709Z,4.17
2022-07-28T16:16:53.569Z,4.82
2022-07-28T16:20:02.055Z,5.82
2022-07-28T16:23:05.896Z,4.65
2022-07-28T16:26:09.472Z,3.95
2022-07-28T16:29:12.463Z,4.07
2022-07-28T16:32:15.270Z,5.07
2022-07-28T16:35:18.266Z,3.65
2022-07-28T16:38:20.761Z,4.07
2022-07-28T16:41:25.335Z,3.70
2022-07-28T16:44:47.877Z,3.50
2022-07-28T16:47:50.855Z,2.97
2022-07-28T16:50:53.474Z,5.03
2022-07-28T16:53:56.328Z,3.22
2022-07-28T16:56:59.013Z,3.30
2022-07-28T17:00:01.786Z,2.97
2022-07-28T17:03:04.391Z,3.12
2022-07-28T17:06:08.701Z,5.62
2022-07-28T17:09:12.283Z,6.03
2022-07-28T17:12:15.120Z,4.82
2022-07-28T17:15:22.129Z,5.37
2022-07-28T17:18:25.835Z,3.00
2022-07-28T17:21:28.476Z,3.97
2022-07-28T17:24:31.379Z,4.65
2022-07-28T17:27:38.153Z,3.20
2022-07-28T17:30:42.114Z,5.27
2022-07-28T17:33:44.675Z,4.70
2022-07-28T17:36:48.255Z,4.78
2022-07-28T17:39:50.806Z,3.72
2022-07-28T17:42:53.587Z,5.40
2022-07-28T17:45:56.167Z,5.27
2022-07-28T17:48:59.293Z,5.10
2022-07-28T17:52:02.309Z,4.70
2022-07-28T17:55:24.346Z,5.10
2022-07-28T17:58:32.036Z,4.37
2022-07-28T18:01:35.490Z,4.97
2022-07-28T18:04:38.919Z,4.93
2022-07-28T18:07:50.392Z,5.30
2022-07-28T18:10:54.325Z,5.68
2022-07-28T18:14:03.795Z,4.05
2022-07-28T18:17:07.469Z,7.50
2022-07-28T18:20:11.791Z,5.55
2022-07-28T18:23:14.638Z,3.33
2022-07-28T18:26:17.213Z,5.68
2022-07-28T18:29:21.478Z,6.32
2022-07-28T18:32:24.371Z,4.47
2022-07-28T18:35:28.749Z,3.22
2022-07-28T18:38:31.314Z,3.92
2022-07-28T18:41:46.162Z,4.65
2022-07-28T18:44:50.021Z,8.00
2022-07-28T18:47:54.280Z,5.63
2022-07-28T18:50:56.836Z,4.87
2022-07-28T18:53:59.923Z,4.65
2022-07-28T18:57:02.474Z,6.03
2022-07-28T19:00:07.910Z,6.97
2022-07-28T19:03:10.502Z,5.00
2022-07-28T19:06:13.345Z,4.90
2022-07-28T19:09:15.948Z,5.68
2022-07-28T19:12:18.781Z,4.32
2022-07-28T19:15:21.406Z,4.87
2022-07-28T19:18:24.190Z,5.73
2022-07-28T19:21:26.838Z,3.78
2022-07-28T19:24:31.773Z,5.12
2022-07-28T19:27:36.374Z,4.72
2022-07-28T19:30:39.681Z,5.57
2022-07-28T19:33:43.879Z,4.97
2022-07-28T19:36:48.672Z,4.65
2022-07-28T19:39:51.677Z,4.53
2022-07-28T19:42:54.479Z,5.15
2022-07-28T19:46:00.123Z,7.30
2022-07-28T19:49:03.776Z,5.07
2022-07-28T19:52:07.119Z,6.22
2022-07-28T19:55:10.022Z,4.43
2022-07-28T19:58:12.623Z,6.00
2022-07-28T20:01:15.676Z,5.80
2022-07-28T20:04:18.924Z,5.27
2022-07-28T20:07:23.216Z,4.30
2022-07-28T20:10:26.072Z,5.87
2022-07-28T20:13:28.610Z,10.25
2022-07-28T20:16:31.489Z,6.03
2022-07-28T20:19:33.994Z,6.03
2022-07-28T20:22:37.632Z,5.35
2022-07-28T20:25:45.326Z,6.82
2022-07-28T20:28:48.296Z,7.62
2022-07-28T20:31:50.848Z,7.35
2022-07-28T20:34:53.674Z,5.47
2022-07-28T20:37:56.183Z,7.00
2022-07-28T20:40:59.155Z,6.35
2022-07-28T20:44:27.917Z,6.45
2022-07-28T20:47:26.122Z,5.03
2022-07-28T20:50:29.514Z,5.43
2022-07-28T20:53:32.337Z,4.82
2022-07-28T20:56:34.876Z,5.93
2022-07-28T20:59:38.119Z,5.80
2022-07-28T21:02:40.721Z,6.18
2022-07-28T21:05:43.622Z,4.50
2022-07-28T21:08:46.960Z,7.32
2022-07-28T21:11:50.258Z,5.90
2022-07-28T21:14:52.773Z,8.30
2022-07-28T21:17:57.274Z,5.43
2022-07-28T21:20:59.875Z,4.83
2022-07-28T21:24:02.730Z,6.75
2022-07-28T21:27:05.362Z,5.12
2022-07-28T21:30:08.792Z,5.65
2022-07-28T21:33:11.522Z,5.50
2022-07-28T21:36:14.357Z,6.17
2022-07-28T21:39:16.914Z,7.72
2022-07-28T21:42:19.874Z,6.57
2022-07-28T21:45:22.523Z,6.47
2022-07-28T21:48:25.399Z,7.07
2022-07-28T21:51:29.299Z,6.97
2022-07-28T21:54:32.255Z,7.55
2022-07-28T21:57:35.084Z,5.35
2022-07-28T22:00:38.021Z,5.45
2022-07-28T22:03:41.528Z,6.37
2022-07-28T22:06:46.330Z,5.93
2022-07-28T22:09:49.507Z,5.70
2022-07-28T22:12:52.110Z,7.05
2022-07-28T22:15:55.157Z,7.50
2022-07-28T22:18:57.714Z,8.48
2022-07-28T22:22:00.576Z,5.70
2022-07-28T22:25:03.545Z,5.40
2022-07-28T22:28:07.044Z,6.00
2022-07-28T22:31:10.271Z,6.65
2022-07-28T22:34:13.357Z,6.53
2022-07-28T22:37:16.143Z,5.23
2022-07-28T22:40:19.104Z,7.18
2022-07-28T22:43:21.693Z,10.10
2022-07-28T22:46:24.670Z,8.32
2022-07-28T22:49:27.448Z,7.43
2022-07-28T22:52:30.468Z,5.17
2022-07-28T22:58:53.359Z,7.15
2022-07-28T23:01:55.961Z,7.03
2022-07-28T23:04:59.329Z,8.02
2022-07-28T23:08:02.005Z,7.07
2022-07-28T23:11:05.553Z,7.15
2022-07-28T23:14:08.189Z,6.03
2022-07-28T23:17:11.167Z,9.80
2022-07-28T23:20:16.431Z,6.00
2022-07-28T23:23:19.406Z,7.70
2022-07-28T23:26:22.097Z,7.25
2022-07-28T23:29:25.049Z,9.82
2022-07-28T23:32:27.647Z,6.75
2022-07-28T23:35:30.580Z,7.62
2022-07-28T23:38:33.144Z,6.30
2022-07-28T23:41:35.989Z,7.47
2022-07-28T23:44:38.587Z,5.75
2022-07-28T23:47:41.404Z,6.65
2022-07-28T23:50:44.001Z,6.05
2022-07-28T23:53:46.906Z,10.10
2022-07-28T23:56:55.815Z,6.62
